Weather at Letňany Airfield

Public forecast

Using degrees Celsius for public forecast. Weather courtesy of forecast.io.

Closest aviation weather report (METAR) to Letňany Airfield

Report is more than 2 hours old.

Closest report is Kbely Air Base, 0.9 nm (1.7 km) SE. Retrieved 2021/03/04 19:00 UTC (2 hours ago):

LKKB 041900Z VRB02KT 2000 SHRA BR BKN027 OVC045 06/05 Q1014 NOSIG

Closest aviation forecast (TAF) to Letňany Airfield

Forecast is more than 6 hours old.

Closest forecast is Kbely Air Base, 0.9 nm (1.7 km) SE. Retrieved 2021/03/04 12:00 UTC (9 hours ago):

TAF LKKB 041100Z 0412/0512 VRB02KT 8000 NSC TEMPO 0412/0415 5000 RA BKN020 BECMG 0416/0418 32008KT BKN025 TEMPO 0418/0500 4000 RA SCT010 BKN020 TEMPO 0500/0507 2000 RASN BKN010 BECMG 0506/0508 34014G26KT BKN010